Data for 03/17/2018

Time Sea-Level Adjusted Pressure Absolute Pressure Temperature Relative Humidity Dew Point   
(mb) (inHg) (mb) (inHg) (C) (F) (%) (C) (F)
00:05 1011 29.85 840 24.81 -1.4 29.4 64 -7.5 18.6
00:10 1011 29.85 840 24.81 -1.4 29.6 63 -7.6 18.4
00:15 1011 29.85 840 24.81 -1.4 29.4 62 -7.8 18
00:20 1011 29.85 840 24.81 -1.5 29.4 62 -7.9 17.9
00:25 1011 29.85 840 24.81 -1.5 29.2 62 -7.9 17.8
00:30 1011 29.85 840 24.81 -1.5 29.3 62 -7.9 17.8
00:35 1011 29.85 840 24.81 -1.5 29.3 62 -7.9 17.9
00:40 1011 29.85 840 24.81 -1.7 29 63 -7.9 17.8
00:45 1011 29.85 840 24.81 -1.5 29.3 62 -7.9 17.8
00:50 1011 29.85 840 24.81 -1.5 29.2 63 -7.8 18
00:55 1011 29.85 840 24.81 -1.7 28.9 64 -7.7 18.2
01:00 1011 29.85 840 24.81 -1.9 28.6 65 -7.6 18.3
01:05 1011 29.85 840 24.81 -2 28.4 66 -7.6 18.4
01:10 1011 29.85 840 24.81 -2.1 28.2 65 -7.8 18
01:15 1011 29.85 840 24.81 -2.2 28.1 65 -7.8 17.9
01:20 1010 29.83 840 24.81 -2.2 28.1 65 -8 17.7
01:25 1010 29.83 840 24.81 -2 28.5 63 -8.1 17.5
01:30 1010 29.83 840 24.81 -1.9 28.6 63 -8 17.5
01:35 1010 29.83 840 24.81 -1.8 28.7 62 -8.2 17.3
01:40 1010 29.83 839 24.78 -2 28.4 63 -8.1 17.4
01:45 1010 29.83 839 24.78 -2.4 27.7 64 -8.2 17.2
01:50 1010 29.83 839 24.78 -2.5 27.5 64 -8.3 17
01:55 1010 29.83 839 24.78 -2.5 27.5 66 -8.1 17.4
02:00 1010 29.83 839 24.78 -2.5 27.6 64 -8.3 17
02:05 1010 29.83 839 24.78 -2.4 27.6 64 -8.3 17
02:10 1010 29.83 839 24.78 -2.4 27.7 63 -8.4 16.8
02:15 1010 29.83 839 24.78 -2.3 27.8 63 -8.4 16.8
02:20 1010 29.83 839 24.78 -2.4 27.6 64 -8.3 17
02:25 1010 29.83 839 24.78 -2.7 27.1 65 -8.5 16.7
02:30 1010 29.83 839 24.78 -2.7 27.1 64 -8.5 16.6
02:35 1010 29.83 839 24.78 -2.8 27 65 -8.5 16.8
02:40 1010 29.83 839 24.78 -2.8 27 65 -8.4 16.8
02:45 1010 29.83 839 24.78 -2.8 27 65 -8.5 16.7
02:50 1010 29.83 839 24.78 -2.7 27.2 65 -8.4 16.8
02:55 1010 29.83 839 24.78 -2.9 26.8 65 -8.6 16.5
03:00 1010 29.83 839 24.78 -2.9 26.7 65 -8.7 16.3
03:05 1010 29.83 839 24.78 -2.9 26.8 63 -8.9 16
03:10 1010 29.83 839 24.78 -2.8 26.9 64 -8.8 16.2
03:15 1010 29.83 839 24.78 -2.8 27 64 -8.7 16.3
03:20 1010 29.83 839 24.78 -2.7 27.1 63 -8.8 16.1
03:25 1010 29.83 839 24.78 -2.6 27.4 63 -8.7 16.4
03:30 1010 29.83 839 24.78 -2.5 27.5 63 -8.7 16.4
03:35 1010 29.83 839 24.78 -2.4 27.7 62 -8.7 16.4
03:40 1010 29.83 839 24.78 -2.5 27.6 63 -8.5 16.7
03:45 1010 29.83 839 24.78 -2.8 26.9 65 -8.6 16.5
03:50 1009 29.8 839 24.78 -2.8 27 64 -8.6 16.6
03:55 1009 29.8 839 24.78 -3 26.7 65 -8.6 16.6
04:00 1009 29.8 839 24.78 -2.9 26.8 65 -8.6 16.5
04:05 1009 29.8 839 24.78 -2.7 27.1 64 -8.6 16.5
04:10 1009 29.8 839 24.78 -2.7 27.1 65 -8.5 16.8
04:15 1009 29.8 839 24.78 -2.8 27 65 -8.4 16.8
04:20 1009 29.8 839 24.78 -2.8 27 65 -8.4 16.9
04:25 1009 29.8 839 24.78 -2.8 27 66 -8.3 17
04:30 1009 29.8 839 24.78 -2.9 26.8 67 -8.2 17.2
04:35 1009 29.8 838 24.75 -2.8 26.9 66 -8.2 17.2
04:40 1009 29.8 838 24.75 -2.6 27.4 66 -8.1 17.4
04:45 1009 29.8 838 24.75 -2.3 27.9 64 -8.2 17.2
04:50 1009 29.8 838 24.75 -1.8 28.7 63 -7.9 17.8
04:55 1009 29.8 838 24.75 -1.9 28.6 64 -7.8 17.9
05:00 1009 29.8 838 24.75 -2 28.5 64 -7.9 17.8
05:05 1009 29.8 838 24.75 -1.9 28.6 64 -7.8 18
05:10 1009 29.8 838 24.75 -1.8 28.7 64 -7.8 17.9
05:15 1009 29.8 838 24.75 -1.8 28.9 64 -7.8 18
05:20 1009 29.8 838 24.75 -1.7 28.9 63 -7.8 18
05:25 1009 29.8 838 24.75 -1.8 28.8 64 -7.7 18.1
05:30 1009 29.8 838 24.75 -1.9 28.5 65 -7.7 18.1
05:35 1009 29.8 839 24.78 -2.3 27.9 65 -8 17.7
05:40 1009 29.8 839 24.78 -2.3 27.8 66 -7.9 17.8
05:45 1009 29.8 839 24.78 -2.3 27.9 65 -7.9 17.7
05:50 1009 29.8 838 24.75 -2.2 28 65 -7.9 17.8
05:55 1009 29.8 838 24.75 -2.2 28 66 -7.8 18
06:00 1009 29.8 838 24.75 -2.1 28.2 65 -7.9 17.7
06:05 1009 29.8 838 24.75 -2.1 28.3 64 -7.9 17.7
06:10 1009 29.8 838 24.75 -1.8 28.7 63 -7.9 17.8
06:15 1009 29.8 838 24.75 -1.6 29.1 63 -7.8 17.9
06:20 1009 29.8 838 24.75 -1.5 29.3 63 -7.7 18.1
06:25 1009 29.8 838 24.75 -1.4 29.4 63 -7.6 18.4
06:30 1009 29.8 838 24.75 -1.5 29.3 63 -7.6 18.4
06:35 1009 29.8 838 24.75 -1.5 29.3 64 -7.6 18.4
06:40 1009 29.8 838 24.75 -1.5 29.3 63 -7.6 18.3
06:45 1009 29.8 838 24.75 -1.6 29.2 63 -7.8 18
06:50 1009 29.8 838 24.75 -1.5 29.2 62 -7.9 17.7
06:55 1009 29.8 838 24.75 -1.4 29.5 61 -7.9 17.7
07:00 1008 29.77 838 24.75 -1.3 29.7 61 -7.8 18
07:05 1008 29.77 838 24.75 -1.2 29.8 61 -7.8 17.9
07:10 1008 29.77 838 24.75 -1.2 29.8 61 -7.8 18
07:15 1008 29.77 838 24.75 -1.3 29.7 62 -7.6 18.3
07:20 1008 29.77 838 24.75 -1.3 29.6 63 -7.5 18.4
07:25 1008 29.77 838 24.75 -1.4 29.5 63 -7.5 18.6
07:30 1008 29.77 838 24.75 -1.4 29.5 63 -7.5 18.5
07:35 1008 29.77 838 24.75 -1.4 29.5 65 -7.2 19
07:40 1008 29.77 838 24.75 -1.4 29.4 63 -7.6 18.3
07:45 1008 29.77 838 24.75 -1.3 29.7 66 -6.9 19.7
07:50 1008 29.77 838 24.75 -1.5 29.2 68 -6.7 19.9
07:55 1008 29.77 838 24.75 -1.7 29 68 -6.9 19.6
08:00 1009 29.8 838 24.75 -1.7 29 67 -6.9 19.5
08:05 1008 29.77 838 24.75 -1.6 29.1 66 -7 19.3
08:10 1008 29.77 838 24.75 -1.6 29.2 66 -7.1 19.2
08:15 1008 29.77 838 24.75 -1.5 29.3 64 -7.5 18.5
08:20 1008 29.77 837 24.72 -1.3 29.6 64 -7.2 19
08:25 1008 29.77 837 24.72 -1.3 29.6 64 -7.3 18.9
08:30 1008 29.77 837 24.72 -1.3 29.6 63 -7.4 18.6
08:35 1008 29.77 837 24.72 -1.2 29.8 63 -7.4 18.6
08:40 1008 29.77 837 24.72 -1.2 29.9 63 -7.3 18.8
08:45 1008 29.77 837 24.72 -1.2 29.9 63 -7.2 19
08:50 1008 29.77 837 24.72 -1.1 30 62 -7.5 18.6
08:55 1008 29.77 837 24.72 -1 30.2 63 -7.2 19.1
09:00 1008 29.77 837 24.72 -1 30.2 63 -7.2 19
09:05 1008 29.77 837 24.72 -1.1 30.1 65 -6.8 19.7
09:10 1008 29.77 837 24.72 -1.2 29.9 66 -6.8 19.8
09:15 1008 29.77 837 24.72 -1.2 29.8 67 -6.7 20
09:20 1008 29.77 837 24.72 -1.2 29.8 67 -6.6 20.1
09:25 1008 29.77 837 24.72 -1.2 29.8 67 -6.6 20.1
09:30 1008 29.77 837 24.72 -1.2 29.8 67 -6.5 20.3
09:35 1008 29.77 837 24.72 -1.3 29.7 69 -6.2 20.8
09:40 1008 29.77 837 24.72 -1.3 29.6 69 -6.3 20.7
09:45 1008 29.77 837 24.72 -1.3 29.6 70 -6.1 21
09:50 1008 29.77 837 24.72 -1.3 29.6 70 -6.1 21.1
09:55 1008 29.77 837 24.72 -1.2 29.8 70 -6.1 21
10:00 1008 29.77 837 24.72 -1.2 29.9 71 -5.8 21.6
10:05 1008 29.77 837 24.72 -1.3 29.7 73 -5.6 22
10:10 1008 29.77 837 24.72 -1.3 29.6 73 -5.6 22
10:15 1008 29.77 837 24.72 -1.3 29.7 73 -5.6 22
10:20 1008 29.77 837 24.72 -1.2 29.9 72 -5.5 22.1
10:25 1008 29.77 837 24.72 -1.1 30 71 -5.6 21.9
10:30 1008 29.77 837 24.72 -0.9 30.4 69 -6 21.3
10:35 1008 29.77 837 24.72 -0.7 30.8 68 -5.8 21.6
10:40 1008 29.77 837 24.72 -0.5 31 69 -5.6 21.9
10:45 1008 29.77 837 24.72 -0.6 31 69 -5.6 22
10:50 1008 29.77 837 24.72 -0.6 31 70 -5.4 22.2
10:55 1008 29.77 837 24.72 -0.6 31 70 -5.4 22.3
11:00 1008 29.77 837 24.72 -0.6 31 70 -5.4 22.2
11:05 1008 29.77 837 24.72 -0.4 31.3 69 -5.5 22.1
11:10 1008 29.77 837 24.72 -0.3 31.5 68 -5.5 22
11:15 1008 29.77 837 24.72 0.1 32.1 65 -5.7 21.8
11:20 1008 29.77 837 24.72 0.4 32.7 63 -5.7 21.7
11:25 1008 29.77 837 24.72 0.5 32.9 62 -5.9 21.4
11:30 1008 29.77 837 24.72 0.7 33.2 64 -5.3 22.4
11:35 1008 29.77 837 24.72 0.8 33.4 64 -5.3 22.4
11:40 1008 29.77 837 24.72 0.9 33.7 63 -5.3 22.4
11:45 1008 29.77 837 24.72 1 33.9 64 -5 23
11:50 1008 29.77 837 24.72 1.1 34.1 58 -6.3 20.7
11:55 1008 29.77 837 24.72 1.1 34 57 -6.6 20.1
12:00 1008 29.77 837 24.72 0.8 33.5 58 -6.4 20.4
12:05 1008 29.77 837 24.72 1 33.9 57 -6.7 20
12:10 1008 29.77 837 24.72 1.5 34.6 56 -6.4 20.5
12:15 1008 29.77 837 24.72 0.7 33.3 59 -6.4 20.4
12:20 1008 29.77 837 24.72 0.8 33.5 57 -6.7 19.9
12:25 1008 29.77 837 24.72 1.1 34 57 -6.5 20.3
12:30 1008 29.77 837 24.72 1 33.8 58 -6.4 20.5
12:35 1008 29.77 837 24.72 1.3 34.4 56 -6.5 20.3
12:40 1008 29.77 837 24.72 1.9 35.4 55 -6.2 20.8
12:45 1008 29.77 837 24.72 1.8 35.2 56 -6 21.1
12:50 1008 29.77 837 24.72 1.7 35.1 54 -6.6 20.1
12:55 1008 29.77 837 24.72 2 35.6 53 -6.5 20.3
13:00 1008 29.77 837 24.72 2 35.6 55 -6.1 21
13:05 1008 29.77 837 24.72 2 35.6 55 -6.2 20.9
13:10 1008 29.77 837 24.72 1.7 35.1 56 -6.2 20.9
13:15 1008 29.77 837 24.72 1.1 34 57 -6.6 20.2
13:20 1008 29.77 837 24.72 1.3 34.4 57 -6.4 20.5
13:25 1008 29.77 837 24.72 1.3 34.4 56 -6.4 20.5
13:30 1008 29.77 837 24.72 1.9 35.4 55 -6.3 20.7
13:35 1008 29.77 837 24.72 2.4 36.3 58 -5.1 22.8
13:40 1008 29.77 837 24.72 3.3 38 56 -4.7 23.5
13:45 1008 29.77 837 24.72 3.2 37.8 57 -4.4 24.2
13:50 1008 29.77 837 24.72 3.1 37.6 58 -4.4 24
13:55 1008 29.77 837 24.72 3.3 38 57 -4.5 24
14:00 1008 29.77 837 24.72 3.7 38.6 55 -4.5 24
14:05 1007 29.74 837 24.72 3.7 38.7 56 -4.3 24.2
14:10 1007 29.74 837 24.72 3.5 38.3 56 -4.4 24.1
14:15 1008 29.77 837 24.72 3.7 38.6 55 -4.6 23.8
14:20 1008 29.77 837 24.72 3.9 39 55 -4.4 24
14:25 1007 29.74 837 24.72 4.2 39.5 54 -4.4 24.2
14:30 1007 29.74 837 24.72 4.3 39.8 53 -4.4 24
14:35 1007 29.74 837 24.72 4.4 40 52 -4.5 23.9
14:40 1007 29.74 837 24.72 3.9 39 54 -4.5 23.8
14:45 1008 29.77 837 24.72 3.6 38.4 54 -4.9 23.2
14:50 1008 29.77 837 24.72 3.8 38.8 54 -4.7 23.6
14:55 1008 29.77 837 24.72 4.2 39.5 53 -4.5 23.9
15:00 1008 29.77 837 24.72 3.6 38.5 60 -3.5 25.7
15:05 1008 29.77 837 24.72 2.2 35.9 63 -4 24.7
15:10 1008 29.77 838 24.75 1.8 35.2 65 -4 24.7
15:15 1008 29.77 838 24.75 2.2 35.9 64 -4 24.8
15:20 1008 29.77 838 24.75 2.5 36.5 61 -4.2 24.5
15:25 1008 29.77 838 24.75 2.7 36.8 60 -4.4 24
15:30 1009 29.8 838 24.75 3.1 37.6 58 -4.3 24.3
15:35 1009 29.8 838 24.75 3.6 38.4 55 -4.7 23.5
15:40 1009 29.8 838 24.75 4 39.3 54 -4.4 24.1
15:45 1009 29.8 838 24.75 4.6 40.3 52 -4.5 24
15:50 1009 29.8 838 24.75 3.5 38.3 61 -3.4 25.9
15:55 1009 29.8 838 24.75 2.4 36.4 63 -4 24.8
16:00 1009 29.8 838 24.75 2.1 35.9 63 -4.3 24.3
16:05 1009 29.8 838 24.75 2.4 36.3 62 -4.3 24.3
16:10 1009 29.8 838 24.75 2.5 36.6 62 -4.1 24.7
16:15 1009 29.8 838 24.75 2.4 36.4 62 -4.2 24.4
16:20 1009 29.8 838 24.75 2.7 36.9 59 -4.5 24
16:25 1009 29.8 838 24.75 2.6 36.6 60 -4.3 24.2
16:30 1009 29.8 838 24.75 3.1 37.5 59 -4.3 24.3
16:35 1009 29.8 838 24.75 3.7 38.6 59 -3.6 25.5
16:40 1009 29.8 838 24.75 3.7 38.7 64 -2.5 27.5
16:45 1009 29.8 838 24.75 3 37.4 67 -2.4 27.7
16:50 1009 29.8 838 24.75 2.9 37.3 64 -3.3 26.1
16:55 1009 29.8 838 24.75 2.9 37.2 64 -3.2 26.2
17:00 1009 29.8 838 24.75 2.8 37 63 -3.6 25.5
17:05 1009 29.8 838 24.75 3 37.5 63 -3.4 26
17:10 1009 29.8 838 24.75 3 37.4 63 -3.4 25.8
17:15 1009 29.8 838 24.75 3.4 38.1 59 -3.9 24.9
17:20 1009 29.8 838 24.75 3.2 37.8 61 -3.6 25.6
17:25 1009 29.8 838 24.75 3.1 37.5 60 -4 24.8
17:30 1009 29.8 838 24.75 2.9 37.2 59 -4.2 24.4
17:35 1009 29.8 838 24.75 2.9 37.2 60 -4.1 24.6
17:40 1009 29.8 838 24.75 2.7 36.9 60 -4.2 24.5
17:45 1009 29.8 838 24.75 3 37.5 61 -3.8 25.1
17:50 1009 29.8 838 24.75 2.8 37 62 -3.8 25.2
17:55 1009 29.8 838 24.75 2.8 37 63 -3.5 25.6
18:00 1009 29.8 838 24.75 3 37.3 64 -3.2 26.3
18:05 1009 29.8 838 24.75 3 37.4 65 -3 26.6
18:10 1009 29.8 838 24.75 3.2 37.7 63 -3.1 26.4
18:15 1009 29.8 838 24.75 3.5 38.3 63 -2.9 26.9
18:20 1009 29.8 838 24.75 3.4 38.1 64 -2.8 27
18:25 1009 29.8 838 24.75 3.2 37.8 63 -3.1 26.5
18:30 1009 29.8 838 24.75 3.5 38.2 63 -3 26.6
18:35 1009 29.8 838 24.75 3.4 38.1 63 -3 26.6
18:40 1009 29.8 838 24.75 3.1 37.6 65 -2.9 26.8
18:45 1009 29.8 839 24.78 2.8 37.1 65 -3.2 26.3
18:50 1010 29.83 839 24.78 2.7 36.8 65 -3.3 26
18:55 1010 29.83 839 24.78 2.2 36 67 -3.3 26.1
19:00 1010 29.83 839 24.78 2.2 35.9 67 -3.3 26.1
19:05 1010 29.83 839 24.78 2.2 35.9 67 -3.3 26
19:10 1010 29.83 839 24.78 2 35.6 68 -3.2 26.2
19:15 1010 29.83 839 24.78 1.7 35.1 69 -3.3 26.1
19:20 1010 29.83 839 24.78 1.6 34.8 70 -3.3 26.1
19:25 1010 29.83 839 24.78 1.6 34.8 70 -3.3 26.1
19:30 1010 29.83 839 24.78 1.6 34.8 70 -3.2 26.2
19:35 1010 29.83 839 24.78 1.5 34.7 70 -3.3 26
19:40 1010 29.83 840 24.81 1.4 34.5 70 -3.5 25.6
19:45 1010 29.83 840 24.81 1.3 34.3 70 -3.6 25.6
19:50 1010 29.83 840 24.81 1.3 34.3 71 -3.4 25.8
19:55 1011 29.85 840 24.81 1.3 34.4 70 -3.5 25.7
20:00 1011 29.85 840 24.81 1.5 34.6 71 -3.3 26
20:05 1011 29.85 840 24.81 1.6 34.8 70 -3.4 25.9
20:10 1011 29.85 840 24.81 1.3 34.3 72 -3.3 26.1
20:15 1011 29.85 840 24.81 1.1 34 72 -3.4 25.8
20:20 1011 29.85 840 24.81 1 33.7 73 -3.4 25.9
20:25 1011 29.85 840 24.81 0.9 33.6 72 -3.6 25.5
20:30 1011 29.85 840 24.81 0.9 33.6 72 -3.7 25.4
20:35 1011 29.85 840 24.81 0.9 33.6 72 -3.6 25.5
20:40 1011 29.85 840 24.81 0.9 33.5 72 -3.6 25.5
20:45 1011 29.85 840 24.81 1 33.8 71 -3.7 25.4
20:50 1011 29.85 840 24.81 0.9 33.6 72 -3.6 25.4
20:55 1011 29.85 840 24.81 1 33.7 71 -3.8 25.1
21:00 1011 29.85 840 24.81 0.8 33.5 73 -3.6 25.6
21:05 1011 29.85 840 24.81 0.7 33.2 70 -4.1 24.6
21:10 1011 29.85 840 24.81 0.8 33.4 71 -3.8 25.1
21:15 1011 29.85 840 24.81 0.7 33.2 69 -4.4 24.1
21:20 1011 29.85 840 24.81 0.8 33.4 65 -5.1 22.9
21:25 1011 29.85 840 24.81 1.1 34 56 -6.8 19.7
21:30 1011 29.85 840 24.81 1.6 34.9 47 -8.5 16.6
21:35 1011 29.85 840 24.81 1.9 35.5 47 -8.3 17.1
21:40 1011 29.85 840 24.81 1.7 35.1 49 -7.8 18
21:45 1011 29.85 840 24.81 1.6 34.8 45 -9.2 15.4
21:50 1011 29.85 840 24.81 2.2 35.9 42 -9.4 15.1
21:55 1011 29.85 840 24.81 2.4 36.3 36 -11.3 11.7
22:00 1011 29.85 840 24.81 2.4 36.3 35 -11.4 11.4
22:05 1011 29.85 840 24.81 2.5 36.4 36 -11.3 11.6
22:10 1011 29.85 840 24.81 2.2 36 39 -10.5 13.2
22:15 1011 29.85 840 24.81 1.7 35.1 40 -10.4 13.2
22:20 1011 29.85 840 24.81 1.6 34.9 42 -10 13.9
22:25 1011 29.85 840 24.81 0.8 33.4 50 -8.5 16.7
22:30 1011 29.85 840 24.81 -0.1 31.9 57 -7.6 18.3
22:35 1011 29.85 840 24.81 -0.2 31.7 53 -8.7 16.3
22:40 1011 29.85 841 24.83 0.1 32.2 51 -8.8 16.2
22:45 1011 29.85 841 24.83 0.2 32.3 52 -8.5 16.7
22:50 1011 29.85 841 24.83 0.1 32.2 53 -8.5 16.8
22:55 1011 29.85 841 24.83 0.1 32.1 52 -8.6 16.6
23:00 1011 29.85 841 24.83 0.1 32.2 51 -9 15.9
23:05 1011 29.85 841 24.83 0.1 32.3 52 -8.5 16.7
23:10 1011 29.85 841 24.83 -0.1 31.9 52 -8.8 16.2
23:15 1011 29.85 841 24.83 0.1 32.2 51 -8.8 16.2
23:20 1012 29.88 841 24.83 0 32.1 52 -8.7 16.3
23:25 1012 29.88 841 24.83 0.1 32.2 50 -9 15.8
23:30 1012 29.88 841 24.83 0.7 33.3 48 -9.1 15.6
23:35 1012 29.88 841 24.83 0.9 33.6 47 -9.3 15.3
23:40 1011 29.85 841 24.83 0.6 33 52 -8.2 17.2
23:45 1011 29.85 841 24.83 -0.6 30.9 51 -9.5 14.9
23:50 1011 29.85 841 24.83 -0.6 30.9 51 -9.6 14.7
23:55 1011 29.85 841 24.83 -0.5 31.1 50 -9.6 14.7
24:00 1011 29.85 841 24.83 -0.5 31 51 -9.5 14.9